Domov               UVHVVR             MKGP            O straneh              
ZDRAVSTVENO VARSTVO RASTLIN
  MREŽA AGROMET. POSTAJ
 ► PROGNOSTIČNA OBVESTILA
AGROMETEOROLOŠKI PODATKI -
ARSO
OBVLADOVANJE TVEGANJ ZARADI
NEUGODNIH VREMENSKIH RAZMER
  ► NARAVNE NESREČE
  ► SUŠA/MOČA
  ► NAMAKANJE
  ► ŽLED (gozdarstvo)
KARTOGRAFSKI PRIKAZI
SPLETNE POVEZAVE
PROJEKTI IN PUBLIKACIJE

AGROMETEOROLOŠKA MREŽA: VREMENSKE POSTAJE IN FENOLOŠKA OPAZOVANJA

Pregled podatkov za lokacijo Kostanjevica na Krki, meteorološka postaja 855712

Pregled senzorjev na lokaciji

ID Ime Zadnja
vrednost
Datum
zadnje
spremembe
Tip
senzorja
3850 Temperatura 2 m (°C) 4,32 °C 15.12.2017 20:00 50YA
3851 Relativna vlaga 2 m (% RH) 100 % RH 15.12.2017 20:00 50YA
3852 Omočenost lista (U) 1 U 15.12.2017 20:00 A730WET
3853 Padavine (mm) 1,8 mm 15.12.2017 20:00 Rain-O-Matic

Pregled podatkov zadnjih 24 ur

Zap.
št.
Datum in čas Kostanjevica na Krki
Omočenost
lista
Padavine Relativna
vlaga
2
m
Temperatura
2
m
0 15.12.2017 20:00 1 1,8 100 4,32
1 15.12.2017 19:30 1 1,2 100 4,65
2 15.12.2017 19:00 2 1,4 100 4,99
3 15.12.2017 18:30 2 1 100 5,36
4 15.12.2017 18:00 2 1,2 100 5,54
5 15.12.2017 17:30 2 1,6 100 6,18
6 15.12.2017 17:00 2 1 98,23 7,72
7 15.12.2017 16:30 2 1 97,16 9,37
8 15.12.2017 16:00 2 0,4 87,61 10,31
9 15.12.2017 15:30 0 0 82,81 10,91
10 15.12.2017 15:00 0 0 73,78 12,11
11 15.12.2017 14:30 0 0 67,57 12,76
12 15.12.2017 14:00 1 0,2 72,73 12,23
13 15.12.2017 13:30 3 0,2 83,09 11,93
14 15.12.2017 13:00 2 0 80,55 12,23
15 15.12.2017 12:30 3 0,2 76,72 12,05
16 15.12.2017 12:00 2 0 69,51 12,99
17 15.12.2017 11:30 2 0,2 73,07 12,58
18 15.12.2017 11:00 5 0,2 76,57 12,24
19 15.12.2017 10:30 7 0,2 76,33 12,15
20 15.12.2017 10:00 4 0,4 79,45 11,45
21 15.12.2017 09:30 8 1,2 89,69 10,13
22 15.12.2017 09:00 9 1,6 88,78 10,23
23 15.12.2017 08:30 9 0,6 85,43 10,39
24 15.12.2017 08:00 5 0 74,16 11,69
25 15.12.2017 07:30 3 0 79,92 10,65
26 15.12.2017 07:00 2 0,2 80,43 10,77
27 15.12.2017 06:30 5 0 79,26 10,96
28 15.12.2017 06:00 10 0,4 76,7 11,18
29 15.12.2017 05:30 4 0,2 77,85 11,06
30 15.12.2017 05:00 9 0,6 79,56 10,98
31 15.12.2017 04:30 9 0,2 79,15 11,12
32 15.12.2017 04:00 4 0,4 78,56 11,11
33 15.12.2017 03:30 8 0,2 75,91 11,47
34 15.12.2017 03:00 3 0 73,97 11,41
35 15.12.2017 02:30 4 0 79,06 10,73
36 15.12.2017 02:00 10 0 73,48 11,53
37 15.12.2017 01:30 10 0,2 72,15 11,55
38 15.12.2017 01:00 9 0 84,32 9,63
39 15.12.2017 00:30 8 0,2 91,49 8,77
40 15.12.2017 00:00 6 0,2 100 6,17
41 14.12.2017 23:30 6 0,2 100 5,66
42 14.12.2017 23:00 7 0 100 5,33
43 14.12.2017 22:30 7 0 100 5,17
44 14.12.2017 22:00 6 0 100 5,75
45 14.12.2017 21:30 6 0 100 5,98
46 14.12.2017 21:00 6 0,2 100 6,36
© 2011 Ministrstvo za kmetijstvo, gozdarstvo in prehrano. Vse pravice pridržane.